createdAt,value
2022-12-08T00:01:40.270Z,97919.31
2022-12-08T00:07:02.595Z,97920.06
2022-12-08T00:12:08.275Z,97910.34
2022-12-08T00:17:14.491Z,97909.53
2022-12-08T00:22:17.373Z,97902.56
2022-12-08T00:27:20.125Z,97902.88
2022-12-08T00:32:24.879Z,97896.66
2022-12-08T00:37:27.722Z,97882.56
2022-12-08T00:42:30.445Z,97880.88
2022-12-08T00:47:34.520Z,97879.84
2022-12-08T00:52:37.547Z,97875.59
2022-12-08T00:57:40.305Z,97870.13
2022-12-08T01:02:44.640Z,97863.31
2022-12-08T01:07:49.000Z,97867.72
2022-12-08T01:12:51.756Z,97863.47
2022-12-08T01:17:55.832Z,97860.84
2022-12-08T01:22:58.540Z,97865.28
2022-12-08T01:28:01.256Z,97863.88
2022-12-08T01:33:05.447Z,97862.84
2022-12-08T01:38:08.210Z,97864.63
2022-12-08T01:43:15.405Z,97865.34
2022-12-08T01:48:23.881Z,97863.78
2022-12-08T01:53:29.333Z,97859.34
2022-12-08T01:58:36.549Z,97856.72
2022-12-08T02:03:45.231Z,97850.50
2022-12-08T02:08:49.837Z,97845.66
2022-12-08T02:13:54.133Z,97841.13
2022-12-08T02:19:30.797Z,97835.88
2022-12-08T02:24:39.927Z,97840.38
2022-12-08T02:30:16.043Z,97829.78
2022-12-08T02:35:28.909Z,97824.50
2022-12-08T02:40:37.902Z,97817.44
2022-12-08T02:45:45.424Z,97817.44
2022-12-08T02:50:49.617Z,97810.41
2022-12-08T02:56:01.554Z,97805.03
2022-12-08T03:01:19.480Z,97805.97
2022-12-08T03:06:32.683Z,97793.75
2022-12-08T03:11:42.863Z,97793.69
2022-12-08T03:16:49.769Z,97784.94
2022-12-08T03:22:02.647Z,97787.25
2022-12-08T03:27:09.033Z,97778.63
2022-12-08T03:32:19.534Z,97768.19
2022-12-08T03:37:23.790Z,97755.03
2022-12-08T03:42:26.573Z,97757.78
2022-12-08T03:47:29.297Z,97747.03
2022-12-08T03:52:33.397Z,97752.53
2022-12-08T03:57:36.231Z,97743.69
2022-12-08T04:02:39.000Z,97733.16
2022-12-08T04:07:43.589Z,97727.97
2022-12-08T04:12:46.388Z,97719.13
2022-12-08T04:17:49.201Z,97718.31
2022-12-08T04:22:53.498Z,97710.28
2022-12-08T04:27:56.603Z,97704.94
2022-12-08T04:32:59.442Z,97699.78
2022-12-08T04:38:04.090Z,97698.00
2022-12-08T04:43:06.809Z,97699.88
2022-12-08T04:48:10.101Z,97697.88
2022-12-08T04:53:14.637Z,97700.50
2022-12-08T04:58:19.406Z,97697.13
2022-12-08T05:03:28.255Z,97689.97
2022-12-08T05:08:33.420Z,97678.72
2022-12-08T05:13:36.298Z,97683.16
2022-12-08T05:18:40.036Z,97679.56
2022-12-08T05:23:44.131Z,97682.09
2022-12-08T05:28:47.913Z,97679.38
2022-12-08T05:33:52.072Z,97679.25
2022-12-08T05:38:57.649Z,97675.88
2022-12-08T05:44:00.453Z,97670.59
2022-12-08T05:49:04.586Z,97672.28
2022-12-08T05:54:08.803Z,97669.78
2022-12-08T05:59:11.562Z,97673.97
2022-12-08T06:04:14.349Z,97667.88
2022-12-08T06:09:18.514Z,97665.16
2022-12-08T06:14:21.381Z,97662.63
2022-12-08T06:19:24.168Z,97658.53
2022-12-08T06:24:28.538Z,97654.94
2022-12-08T06:29:31.320Z,97655.75
2022-12-08T06:34:34.121Z,97661.97
2022-12-08T06:39:38.349Z,97657.66
2022-12-08T06:44:41.374Z,97661.97
2022-12-08T06:49:44.319Z,97658.41
2022-12-08T06:54:48.373Z,97652.19
2022-12-08T06:59:51.232Z,97657.38
2022-12-08T07:04:54.034Z,97658.09
2022-12-08T07:09:58.176Z,97658.00
2022-12-08T07:15:02.013Z,97665.91
2022-12-08T07:20:06.369Z,97659.69
2022-12-08T07:25:11.078Z,97666.09
2022-12-08T07:30:15.510Z,97669.56
2022-12-08T07:35:18.378Z,97671.25
2022-12-08T07:40:22.696Z,97661.25
2022-12-08T07:45:31.266Z,97655.91
2022-12-08T07:50:35.365Z,97657.38
2022-12-08T07:55:41.675Z,97658.84
2022-12-08T08:00:44.457Z,97664.00
2022-12-08T08:05:49.205Z,97660.53
2022-12-08T08:10:53.340Z,97664.84
2022-12-08T08:16:03.818Z,97663.06
2022-12-08T08:21:43.363Z,97662.00
2022-12-08T08:26:31.592Z,97669.69
2022-12-08T08:31:34.692Z,97664.31
2022-12-08T08:36:37.996Z,97665.06
2022-12-08T08:41:42.152Z,97655.88
2022-12-08T08:46:45.255Z,97661.03
2022-12-08T08:51:48.252Z,97668.28
2022-12-08T08:56:52.685Z,97660.09
2022-12-08T09:01:56.141Z,97653.75
2022-12-08T09:06:59.407Z,97653.56
2022-12-08T09:12:03.689Z,97654.38
2022-12-08T09:17:08.434Z,97652.16
2022-12-08T09:22:11.152Z,97653.47
2022-12-08T09:27:15.420Z,97649.53
2022-12-08T09:32:19.006Z,97660.22
2022-12-08T09:37:22.785Z,97664.22
2022-12-08T09:42:34.745Z,97663.03
2022-12-08T09:47:42.689Z,97662.00
2022-12-08T09:52:51.117Z,97665.56
2022-12-08T09:58:03.680Z,97656.63
2022-12-08T10:03:16.411Z,97651.00
2022-12-08T10:08:22.188Z,97647.44
2022-12-08T10:13:36.457Z,97649.78
2022-12-08T10:18:39.725Z,97641.88
2022-12-08T10:23:45.705Z,97635.41
2022-12-08T10:28:50.453Z,97628.69
2022-12-08T10:33:58.296Z,97619.25
2022-12-08T10:39:02.416Z,97615.16
2022-12-08T10:44:07.190Z,97615.16
2022-12-08T10:49:13.088Z,97613.75
2022-12-08T10:54:29.102Z,97600.50
2022-12-08T10:59:34.580Z,97601.59
2022-12-08T11:04:39.199Z,97601.50
2022-12-08T11:09:48.433Z,97598.16
2022-12-08T11:14:58.966Z,97592.38
2022-12-08T11:20:06.680Z,97593.34
2022-12-08T11:25:13.146Z,97587.44
2022-12-08T11:30:20.926Z,97589.28
2022-12-08T11:35:27.988Z,97582.81
2022-12-08T11:40:36.785Z,97575.38
2022-12-08T11:45:42.551Z,97573.28
2022-12-08T11:50:50.636Z,97570.91
2022-12-08T11:55:58.143Z,97573.06
2022-12-08T12:01:02.791Z,97568.34
2022-12-08T12:06:57.567Z,97566.81
2022-12-08T12:12:16.908Z,97560.66
2022-12-08T12:17:42.607Z,97565.13
2022-12-08T12:22:49.584Z,97558.41
2022-12-08T12:27:57.604Z,97555.75
2022-12-08T12:33:03.087Z,97552.66
2022-12-08T12:38:29.281Z,97552.50
2022-12-08T12:43:34.867Z,97536.91
2022-12-08T12:48:38.999Z,97538.50
2022-12-08T12:53:51.013Z,97526.59
2022-12-08T12:58:55.618Z,97527.94
2022-12-08T13:04:07.689Z,97521.31
2022-12-08T13:09:23.026Z,97516.91
2022-12-08T13:14:30.164Z,97521.22
2022-12-08T13:19:36.663Z,97517.63
2022-12-08T13:24:39.604Z,97511.84
2022-12-08T13:29:42.518Z,97521.22
2022-12-08T13:34:52.460Z,97510.41
2022-12-08T13:39:59.857Z,97514.25
2022-12-08T13:45:48.525Z,97504.63
2022-12-08T13:52:33.042Z,97510.03
2022-12-08T14:01:25.695Z,97504.84
2022-12-08T14:06:32.533Z,97505.78
2022-12-08T14:11:38.121Z,97511.03
2022-12-08T14:16:42.674Z,97503.84
2022-12-08T14:21:54.663Z,97507.06
2022-12-08T14:27:00.380Z,97510.50
2022-12-08T14:32:03.096Z,97508.19
2022-12-08T14:37:12.664Z,97510.13
2022-12-08T14:42:23.830Z,97508.53
2022-12-08T14:47:31.719Z,97525.03
2022-12-08T14:52:35.928Z,97517.19
2022-12-08T14:57:38.825Z,97516.69
2022-12-08T15:02:47.682Z,97517.25
2022-12-08T15:07:53.892Z,97513.28
2022-12-08T15:13:03.618Z,97519.94
2022-12-08T15:18:13.798Z,97534.06
2022-12-08T15:23:41.729Z,97524.69
2022-12-08T15:28:44.530Z,97529.44
2022-12-08T15:33:47.400Z,97522.63
2022-12-08T15:38:51.472Z,97522.13
2022-12-08T15:43:54.281Z,97518.84
2022-12-08T15:48:58.351Z,97518.22
2022-12-08T15:54:02.665Z,97515.72
2022-12-08T15:59:06.412Z,97522.25
2022-12-08T16:04:47.355Z,97521.41
2022-12-08T16:09:38.366Z,97527.50
2022-12-08T16:20:12.465Z,97509.63
2022-12-08T16:25:19.317Z,97507.13
2022-12-08T16:30:23.279Z,97505.44
2022-12-08T16:35:26.009Z,97513.66
2022-12-08T16:40:30.758Z,97514.59
2022-12-08T16:45:40.055Z,97519.75
2022-12-08T16:50:47.505Z,97517.97
2022-12-08T16:55:51.979Z,97519.03
2022-12-08T17:00:54.889Z,97524.31
2022-12-08T17:05:57.696Z,97522.50
2022-12-08T17:11:08.742Z,97517.34
2022-12-08T17:16:15.083Z,97514.22
2022-12-08T17:21:19.034Z,97504.50
2022-12-08T17:26:23.209Z,97508.31
2022-12-08T17:31:29.617Z,97503.34
2022-12-08T17:36:33.476Z,97507.88
2022-12-08T17:41:37.563Z,97501.28
2022-12-08T17:46:43.391Z,97505.28
2022-12-08T17:51:49.283Z,97508.97
2022-12-08T17:56:54.019Z,97515.28
2022-12-08T18:01:57.981Z,97505.19
2022-12-08T18:07:01.516Z,97510.66
2022-12-08T18:12:06.223Z,97508.25
2022-12-08T18:17:09.120Z,97510.13
2022-12-08T18:22:12.274Z,97503.41
2022-12-08T18:27:16.783Z,97503.94
2022-12-08T18:32:23.485Z,97505.81
2022-12-08T18:37:26.363Z,97510.44
2022-12-08T18:42:30.500Z,97497.19
2022-12-08T18:47:34.964Z,97502.56
2022-12-08T18:52:37.758Z,97499.19
2022-12-08T18:57:43.742Z,97505.38
2022-12-08T19:02:46.553Z,97498.97
2022-12-08T19:07:49.558Z,97500.78
2022-12-08T19:12:54.742Z,97503.41
2022-12-08T19:17:57.541Z,97504.34
2022-12-08T19:23:00.472Z,97502.75
2022-12-08T19:28:04.729Z,97504.56
2022-12-08T19:33:07.549Z,97510.03
2022-12-08T19:38:10.320Z,97508.22
2022-12-08T19:43:35.544Z,97510.25
2022-12-08T19:48:38.308Z,97521.72
2022-12-08T19:53:47.341Z,97508.56
2022-12-08T19:58:52.387Z,97511.28
2022-12-08T20:03:55.177Z,97509.69
2022-12-08T20:08:57.988Z,97514.13
2022-12-08T20:14:02.114Z,97517.47
2022-12-08T20:19:05.829Z,97515.91
2022-12-08T20:24:08.969Z,97514.00
2022-12-08T20:29:16.924Z,97508.22
2022-12-08T20:34:20.545Z,97504.56
2022-12-08T20:39:23.355Z,97499.31
2022-12-08T20:44:29.260Z,97498.44
2022-12-08T20:49:34.803Z,97500.53
2022-12-08T20:54:38.609Z,97505.19
2022-12-08T20:59:43.012Z,97506.13
2022-12-08T21:04:45.925Z,97507.91
2022-12-08T21:09:48.842Z,97502.66
2022-12-08T21:14:53.100Z,97500.97
2022-12-08T21:19:55.821Z,97510.66
2022-12-08T21:24:58.837Z,97503.69
2022-12-08T21:30:03.179Z,97504.63
2022-12-08T21:35:07.676Z,97502.94
2022-12-08T21:40:12.136Z,97510.94
2022-12-08T21:45:18.123Z,97520.59
2022-12-08T21:50:21.520Z,97503.47
2022-12-08T21:55:24.462Z,97508.63
2022-12-08T22:00:29.177Z,97513.66
2022-12-08T22:05:32.151Z,97514.72
2022-12-08T22:10:35.227Z,97514.81
2022-12-08T22:15:39.362Z,97519.03
2022-12-08T22:20:44.112Z,97517.34
2022-12-08T22:25:56.911Z,97511.25
2022-12-08T22:31:01.194Z,97516.50
2022-12-08T22:36:10.704Z,97521.00
2022-12-08T22:41:14.487Z,97518.59
2022-12-08T22:46:20.542Z,97517.03
2022-12-08T22:51:23.411Z,97517.03
2022-12-08T22:56:26.117Z,97506.53
2022-12-08T23:01:31.967Z,97507.47
2022-12-08T23:06:35.003Z,97501.25
2022-12-08T23:11:37.797Z,97497.88
2022-12-08T23:16:42.326Z,97498.81
2022-12-08T23:21:45.242Z,97498.19
2022-12-08T23:26:48.036Z,97493.69
2022-12-08T23:31:52.237Z,97495.56
2022-12-08T23:36:55.210Z,97490.72
2022-12-08T23:41:58.017Z,97488.94
2022-12-08T23:47:02.333Z,97490.72
2022-12-08T23:52:05.610Z,97484.81
2022-12-08T23:57:09.194Z,97484.63
